Time;durP1;ratioP1;P1;durP2;ratioP2;P2;SDS_P1;SDS_P2;PMS_P1;PMS_P2;Temp;Humidity;BMP_temperature;BMP_pressure;BME280_temperature;BME280_humidity;BME280_pressure;Samples;Min_cycle;Max_cycle;Signal;HPM_P1;HPM_P2
2022/10/08 00:01:25;;;;;;;;;5.00;4.00;;;;;15.42;52.52;101276.94;5038976;28;45384;-58
2022/10/08 00:03:52;;;;;;;;;4.00;4.00;;;;;15.35;54.15;101278.13;5036736;28;45376;-58
2022/10/08 00:06:29;;;;;;;;;5.33;4.00;;;;;15.36;53.64;101277.19;5036427;28;45564;-58
2022/10/08 00:09:06;;;;;;;;;6.00;5.00;;;;;15.40;52.91;101281.44;5054462;28;46218;-58
2022/10/08 00:11:37;;;;;;;;;5.00;4.67;;;;;15.41;54.00;101275.19;5039662;28;45570;-57
2022/10/08 00:14:04;;;;;;;;;4.33;3.33;;;;;15.44;53.19;101276.84;5032782;28;45499;-58
2022/10/08 00:16:32;;;;;;;;;5.67;4.67;;;;;15.46;53.48;101278.50;5035706;28;45637;-57
2022/10/08 00:19:07;;;;;;;;;5.00;5.00;;;;;15.43;52.68;101280.44;5054492;28;45408;-58
2022/10/08 00:21:35;;;;;;;;;4.00;4.00;;;;;15.38;53.49;101277.13;5056339;28;45543;-58
2022/10/08 00:24:03;;;;;;;;;6.00;4.00;;;;;15.42;53.76;101278.69;5056578;28;45664;-59
2022/10/08 00:26:31;;;;;;;;;5.00;3.33;;;;;15.40;53.83;101284.06;5052762;28;45371;-59
2022/10/08 00:29:00;;;;;;;;;9.00;5.00;;;;;15.39;53.04;101279.72;5055996;28;46163;-59
2022/10/08 00:31:31;;;;;;;;;4.00;4.00;;;;;15.32;53.82;101280.91;5056847;28;45430;-58
2022/10/08 00:33:59;;;;;;;;;5.00;5.00;;;;;15.29;54.10;101280.19;5056547;28;45456;-57
2022/10/08 00:36:27;;;;;;;;;4.33;4.33;;;;;15.24;53.87;101281.25;5051199;28;45379;-59
2022/10/08 00:38:56;;;;;;;;;6.00;6.00;;;;;15.29;53.61;101290.78;5056128;28;45388;-58
2022/10/08 00:41:25;;;;;;;;;8.00;6.00;;;;;15.20;54.18;101289.38;5040872;28;45447;-59
2022/10/08 00:43:57;;;;;;;;;5.00;5.00;;;;;15.22;54.39;101284.88;5036397;28;45530;-58
2022/10/08 00:46:33;;;;;;;;;5.33;5.33;;;;;15.28;54.85;101286.41;5045525;28;45462;-58
2022/10/08 00:49:12;;;;;;;;;5.67;3.33;;;;;15.28;54.11;101289.06;5056027;28;45507;-58
2022/10/08 00:51:43;;;;;;;;;5.67;5.00;;;;;15.30;54.52;101292.50;5044028;28;45484;-58
2022/10/08 00:54:10;;;;;;;;;4.67;3.00;;;;;15.29;53.36;101291.66;5036136;28;45513;-58
2022/10/08 00:56:38;;;;;;;;;4.00;4.00;;;;;15.29;54.32;101291.66;5046848;28;45497;-58
2022/10/08 00:59:06;;;;;;;;;5.00;4.00;;;;;15.23;54.14;101284.84;5056047;28;46627;-57
2022/10/08 01:01:32;;;;;;;;;2.67;2.33;;;;;15.24;54.83;101291.84;5043290;28;45421;-58
2022/10/08 01:04:03;;;;;;;;;5.67;3.67;;;;;15.13;54.69;101275.56;5018230;28;45477;-57
2022/10/08 01:06:56;;;;;;;;;5.00;5.00;;;;;15.21;55.25;101297.28;5042326;28;45509;-58
2022/10/08 01:09:34;;;;;;;;;3.67;3.67;;;;;15.24;54.81;101293.63;5055977;28;46216;-57
2022/10/08 01:12:16;;;;;;;;;4.00;4.00;;;;;15.22;54.70;101288.38;5055946;28;45462;-58
2022/10/08 01:15:35;;;;;;;;;5.00;5.00;;;;;15.13;55.38;101290.59;5039937;28;45391;-57
2022/10/08 01:18:38;;;;;;;;;5.00;4.00;;;;;15.12;54.69;101289.72;4974333;28;45613;-58
2022/10/08 01:21:28;;;;;;;;;3.00;3.00;;;;;15.06;55.82;101286.47;4957225;28;46106;-58
2022/10/08 01:27:41;;;;;;;;;5.00;3.00;;;;;15.08;55.59;101292.59;5011680;28;45428;-57
2022/10/08 01:30:15;;;;;;;;;3.00;3.00;;;;;15.05;55.29;101285.63;5000809;28;45367;-59
2022/10/08 01:33:11;;;;;;;;;2.67;2.67;;;;;15.02;56.52;101280.47;5019759;28;46405;-59
2022/10/08 01:35:45;;;;;;;;;4.33;3.00;;;;;14.99;56.06;101276.16;5035806;28;45371;-58
2022/10/08 01:38:15;;;;;;;;;2.00;2.00;;;;;14.96;56.22;101284.25;5047708;28;45383;-58
2022/10/08 01:40:44;;;;;;;;;4.00;2.33;;;;;14.94;56.17;101278.13;5038562;28;45546;-58
2022/10/08 01:43:14;;;;;;;;;5.00;3.00;;;;;14.94;57.01;101272.00;5037171;28;45464;-58
2022/10/08 01:45:47;;;;;;;;;5.00;2.33;;;;;14.96;57.25;101278.06;5045586;28;45344;-58
2022/10/08 01:48:19;;;;;;;;;2.33;2.33;;;;;14.97;57.31;101279.78;5059377;28;45489;-59
2022/10/08 01:50:54;;;;;;;;;2.00;2.00;;;;;14.98;56.70;101281.50;5059044;28;45466;-58
2022/10/08 01:53:24;;;;;;;;;4.00;2.00;;;;;15.03;56.72;101279.53;5059067;28;45521;-59
2022/10/08 01:55:53;;;;;;;;;1.67;1.67;;;;;15.01;57.04;101282.22;5047451;28;45534;-57
2022/10/08 01:58:53;;;;;;;;;1.67;1.67;;;;;15.02;56.86;101269.88;5038073;28;45623;-58
2022/10/08 02:01:52;;;;;;;;;2.00;2.00;;;;;15.00;56.62;101264.63;5019030;28;45648;-58
2022/10/08 02:04:34;;;;;;;;;3.33;2.00;;;;;15.01;56.61;101263.69;5006900;28;46309;-58
2022/10/08 02:07:14;;;;;;;;;2.67;2.00;;;;;15.02;57.26;101262.78;5044615;28;45323;-59
2022/10/08 02:09:42;;;;;;;;;2.67;1.67;;;;;15.06;56.89;101262.63;5058680;28;45423;-58
2022/10/08 02:12:08;;;;;;;;;2.33;2.33;;;;;15.09;57.26;101267.81;5039909;28;45558;-59
2022/10/08 02:14:37;;;;;;;;;1.00;1.00;;;;;15.09;56.97;101271.31;5040543;28;45373;-59
2022/10/08 02:17:23;;;;;;;;;2.00;2.00;;;;;15.10;56.74;101270.41;5039063;28;45727;-59
2022/10/08 02:19:52;;;;;;;;;2.67;2.67;;;;;15.08;56.59;101272.25;5054987;28;45543;-59
2022/10/08 02:22:21;;;;;;;;;2.33;2.00;;;;;15.08;56.60;101276.69;5051730;28;45547;-58
2022/10/08 02:25:15;;;;;;;;;2.00;2.00;;;;;15.10;56.99;101274.81;5077023;28;46306;-58
2022/10/08 02:27:54;;;;;;;;;3.33;3.00;;;;;15.10;56.67;101277.47;5041747;28;45462;-57
2022/10/08 02:30:22;;;;;;;;;3.67;2.33;;;;;15.10;57.07;101281.00;5056805;28;45495;-57
2022/10/08 02:32:52;;;;;;;;;2.00;1.67;;;;;15.13;57.11;101274.69;5058715;28;45394;-57
2022/10/08 02:35:26;;;;;;;;;2.00;2.00;;;;;15.15;56.92;101276.34;5062000;28;45505;-57
2022/10/08 02:38:10;;;;;;;;;3.00;1.67;;;;;15.12;57.35;101270.31;5078346;28;45473;-58
2022/10/08 02:40:40;;;;;;;;;2.00;2.00;;;;;15.12;57.04;101268.50;5060138;28;45397;-60
2022/10/08 02:43:18;;;;;;;;;3.00;1.00;;;;;15.16;56.93;101263.97;5078396;28;45433;-58
2022/10/08 02:45:58;;;;;;;;;2.67;2.00;;;;;15.15;57.89;101270.19;5067958;28;45722;-58
2022/10/08 02:48:32;;;;;;;;;1.00;1.00;;;;;15.08;58.14;101264.28;5057500;28;45440;-58
2022/10/08 02:51:06;;;;;;;;;0.67;0.67;;;;;15.06;58.37;101271.44;5076115;28;45477;-58
2022/10/08 02:53:38;;;;;;;;;1.00;1.00;;;;;15.05;58.72;101267.09;5059668;28;45598;-57
2022/10/08 02:56:22;;;;;;;;;4.00;2.33;;;;;15.01;58.02;101273.41;5067920;28;45506;-58
2022/10/08 02:58:48;;;;;;;;;2.00;2.00;;;;;15.01;58.40;101268.97;5078042;28;45454;-58
2022/10/08 03:01:41;;;;;;;;;3.00;2.00;;;;;14.99;58.41;101269.97;5059888;28;45342;-57
2022/10/08 03:04:21;;;;;;;;;2.00;2.00;;;;;15.01;59.10;101273.41;5078216;28;45407;-58
2022/10/08 03:06:48;;;;;;;;;2.50;2.50;;;;;14.99;59.05;101268.22;5060329;28;46267;-58
2022/10/08 03:09:16;;;;;;;;;1.33;1.33;;;;;14.89;59.85;101263.38;5049399;28;45469;-58
2022/10/08 03:11:41;;;;;;;;;2.33;2.33;;;;;14.90;59.18;101265.94;5058058;28;45348;-58
2022/10/08 03:14:11;;;;;;;;;1.00;1.00;;;;;14.93;59.48;101270.25;5057543;28;45546;-58
2022/10/08 03:16:45;;;;;;;;;3.00;2.67;;;;;14.93;59.44;101267.59;5067365;28;45572;-56
2022/10/08 03:19:16;;;;;;;;;3.00;2.00;;;;;14.95;59.74;101273.69;5057551;28;45395;-55
2022/10/08 03:21:44;;;;;;;;;2.00;2.00;;;;;14.97;59.83;101272.72;5057019;28;45419;-58
2022/10/08 03:24:11;;;;;;;;;3.00;2.00;;;;;14.97;58.94;101270.06;5057412;28;45600;-59
2022/10/08 03:26:37;;;;;;;;;2.00;1.00;;;;;15.00;59.60;101271.72;5048772;28;45488;-59
2022/10/08 03:29:04;;;;;;;;;1.00;1.00;;;;;14.99;60.30;101278.81;5057643;28;45390;-58
2022/10/08 03:31:29;;;;;;;;;2.67;1.00;;;;;14.94;60.04;101279.94;5058185;28;45484;-58
2022/10/08 03:33:55;;;;;;;;;4.00;2.00;;;;;14.93;60.48;101279.03;5057345;28;45514;-57
2022/10/08 03:36:23;;;;;;;;;2.00;2.00;;;;;14.98;60.48;101294.75;5055651;28;46174;-57
2022/10/08 03:38:49;;;;;;;;;2.00;1.67;;;;;15.01;60.23;101292.81;5057145;28;45390;-57
2022/10/08 03:41:15;;;;;;;;;3.00;3.00;;;;;14.95;59.39;101285.16;5055322;28;45442;-58
2022/10/08 03:43:41;;;;;;;;;4.00;2.00;;;;;14.88;60.18;101291.63;5057293;28;45383;-57
2022/10/08 03:46:07;;;;;;;;;3.00;3.00;;;;;14.92;60.54;101292.38;5047865;28;45458;-57
2022/10/08 03:48:33;;;;;;;;;3.00;2.00;;;;;14.92;60.39;101301.16;5056816;28;45497;-58
2022/10/08 03:51:09;;;;;;;;;2.00;1.67;;;;;14.90;60.28;101307.47;5057332;28;45471;-57
2022/10/08 03:53:36;;;;;;;;;2.33;2.33;;;;;14.90;60.93;101315.41;5057083;28;45470;-58
2022/10/08 03:56:03;;;;;;;;;2.00;2.00;;;;;14.89;60.40;101305.75;5047902;28;45526;-58
2022/10/08 03:58:29;;;;;;;;;1.00;1.00;;;;;14.88;60.53;101311.94;5056804;28;45494;-58
2022/10/08 04:00:57;;;;;;;;;2.33;2.33;;;;;14.76;61.84;101311.53;5056884;28;45475;-57
2022/10/08 04:03:23;;;;;;;;;2.00;2.00;;;;;14.73;60.88;101314.31;5056804;28;45383;-58
2022/10/08 04:05:49;;;;;;;;;4.00;4.00;;;;;14.76;61.05;101314.19;5049189;28;46334;-57
2022/10/08 04:08:14;;;;;;;;;2.00;2.00;;;;;14.73;60.91;101318.75;5054786;28;45429;-58
2022/10/08 04:10:39;;;;;;;;;1.33;1.33;;;;;14.70;61.73;101318.91;5055565;28;45573;-57
2022/10/08 04:13:05;;;;;;;;;3.00;3.00;;;;;14.68;62.33;101320.72;5056266;28;49639;-58
2022/10/08 04:15:30;;;;;;;;;1.67;1.67;;;;;14.67;62.05;101321.63;5051674;28;45490;-58
2022/10/08 04:17:55;;;;;;;;;2.00;2.00;;;;;14.65;61.78;101319.06;5053581;28;52880;-57
2022/10/08 04:20:20;;;;;;;;;3.00;3.00;;;;;14.66;61.76;101323.44;5056610;28;45482;-58
2022/10/08 04:22:47;;;;;;;;;2.00;2.00;;;;;14.60;63.05;101331.63;5072002;28;45437;-56
2022/10/08 04:25:13;;;;;;;;;2.67;2.67;;;;;14.58;62.41;101330.81;5072203;28;45488;-58
2022/10/08 04:27:38;;;;;;;;;1.67;1.67;;;;;14.55;62.67;101337.09;5056322;28;45420;-58
2022/10/08 04:30:04;;;;;;;;;1.67;1.67;;;;;14.57;62.75;101329.97;5056530;28;45516;-58
2022/10/08 04:32:30;;;;;;;;;2.00;2.00;;;;;14.61;62.55;101329.84;5056651;28;45469;-58
2022/10/08 04:34:55;;;;;;;;;3.67;3.00;;;;;14.64;62.65;101342.94;5056320;28;45607;-59
2022/10/08 04:37:21;;;;;;;;;3.33;3.33;;;;;14.68;62.19;101342.78;5068313;28;49011;-57
2022/10/08 04:39:47;;;;;;;;;4.00;4.00;;;;;14.72;62.01;101338.19;5076554;28;45562;-58
2022/10/08 04:42:12;;;;;;;;;3.00;3.00;;;;;14.62;63.29;101344.81;5076643;28;45675;-59
2022/10/08 04:44:37;;;;;;;;;2.00;2.00;;;;;14.64;63.76;101354.44;5070360;28;45402;-59
2022/10/08 04:47:03;;;;;;;;;2.00;2.00;;;;;14.59;64.44;101345.81;5054849;28;45577;-57
2022/10/08 04:49:28;;;;;;;;;2.00;2.00;;;;;14.58;64.49;101355.50;5055595;28;45478;-58
2022/10/08 04:51:54;;;;;;;;;4.00;2.67;;;;;14.62;64.57;101358.06;5037467;28;45653;-58
2022/10/08 04:54:19;;;;;;;;;4.00;3.00;;;;;14.62;64.28;101363.34;5055039;28;45414;-57
2022/10/08 04:56:45;;;;;;;;;2.33;1.00;;;;;14.59;64.41;101366.97;5035695;28;45482;-58
2022/10/08 04:59:10;;;;;;;;;3.67;2.00;;;;;14.61;65.15;101359.81;5056092;28;45442;-59
2022/10/08 05:01:35;;;;;;;;;2.00;2.00;;;;;14.61;64.98;101366.91;5055008;28;45355;-58
2022/10/08 05:04:01;;;;;;;;;2.67;2.67;;;;;14.56;65.70;101361.78;5055998;28;49259;-58
2022/10/08 05:06:28;;;;;;;;;3.00;2.00;;;;;14.57;65.45;101360.88;5055537;28;45415;-58
2022/10/08 05:08:55;;;;;;;;;3.67;3.00;;;;;14.58;65.10;101362.59;5076446;28;45406;-59
2022/10/08 05:11:23;;;;;;;;;2.33;2.33;;;;;14.57;65.20;101366.16;5076174;28;45579;-58
2022/10/08 05:13:50;;;;;;;;;3.67;2.00;;;;;14.52;65.46;101369.00;5076121;28;45542;-57
2022/10/08 05:16:17;;;;;;;;;2.67;2.67;;;;;14.52;65.29;101365.44;5062217;28;45572;-59
2022/10/08 05:18:42;;;;;;;;;4.00;4.00;;;;;14.53;65.01;101362.78;5056090;28;45486;-59
2022/10/08 05:21:11;;;;;;;;;2.67;2.67;;;;;14.53;65.23;101370.72;5051000;28;45698;-58
2022/10/08 05:23:37;;;;;;;;;4.00;4.00;;;;;14.51;65.83;101376.97;5055861;28;45477;-58
2022/10/08 05:26:18;;;;;;;;;2.67;2.67;;;;;14.47;65.52;101378.88;5057514;28;45410;-56
2022/10/08 05:28:45;;;;;;;;;3.00;3.00;;;;;14.38;65.74;101384.53;5075984;28;45470;-59
2022/10/08 05:31:11;;;;;;;;;3.00;3.00;;;;;14.42;65.89;101380.81;5076035;28;45593;-59
2022/10/08 05:33:36;;;;;;;;;2.33;2.00;;;;;14.44;65.30;101380.78;5076359;28;45703;-59
2022/10/08 05:36:05;;;;;;;;;2.00;2.00;;;;;14.45;65.17;101383.34;5073211;28;45447;-58
2022/10/08 05:38:30;;;;;;;;;3.33;3.33;;;;;14.43;65.32;101390.50;5075954;28;45394;-59
2022/10/08 05:41:06;;;;;;;;;4.00;3.00;;;;;14.41;65.05;101386.19;5076044;28;45403;-58
2022/10/08 05:43:32;;;;;;;;;3.00;3.00;;;;;14.39;65.16;101388.03;5075855;28;45338;-59
2022/10/08 05:45:57;;;;;;;;;2.00;2.00;;;;;14.38;65.52;101396.91;5072833;28;46650;-59
2022/10/08 05:48:22;;;;;;;;;3.33;3.33;;;;;14.33;65.31;101405.88;5075797;28;46141;-59
2022/10/08 05:50:48;;;;;;;;;2.00;2.00;;;;;14.33;65.07;101405.00;5068231;28;45483;-58
2022/10/08 05:53:13;;;;;;;;;3.33;3.33;;;;;14.28;65.40;101399.88;5047186;28;47215;-58
2022/10/08 05:55:38;;;;;;;;;3.33;2.33;;;;;14.28;65.08;101397.22;5051714;28;52303;-58
2022/10/08 05:58:03;;;;;;;;;2.00;2.00;;;;;14.29;65.17;101395.44;5072976;28;45429;-57
2022/10/08 06:00:29;;;;;;;;;2.00;2.00;;;;;14.32;65.09;101393.56;5075223;28;46281;-59
2022/10/08 06:02:54;;;;;;;;;3.33;3.00;;;;;14.29;65.62;101398.97;5038353;28;56404;-59
2022/10/08 06:05:19;;;;;;;;;3.33;3.00;;;;;14.30;64.68;101399.84;5054238;28;52006;-60
2022/10/08 06:07:45;;;;;;;;;2.67;2.00;;;;;14.32;65.20;101398.00;5070767;28;45480;-59
2022/10/08 06:10:10;;;;;;;;;6.00;6.00;;;;;14.29;65.04;101408.66;5059852;28;45402;-59
2022/10/08 06:12:35;;;;;;;;;6.33;4.67;;;;;14.28;65.61;101407.81;5043442;28;45741;-58
2022/10/08 06:15:00;;;;;;;;;3.67;3.00;;;;;14.29;65.51;101409.56;5061769;28;45518;-58
2022/10/08 06:17:26;;;;;;;;;3.00;3.00;;;;;14.30;65.63;101405.97;5075752;28;45410;-58
2022/10/08 06:19:51;;;;;;;;;4.00;3.00;;;;;14.30;65.94;101411.28;5045701;28;45482;-57
2022/10/08 06:22:16;;;;;;;;;3.00;3.00;;;;;14.30;65.59;101419.22;5078266;28;45460;-59
2022/10/08 06:24:42;;;;;;;;;5.67;4.33;;;;;14.34;65.43;101412.00;5060291;28;46347;-57
2022/10/08 06:27:07;;;;;;;;;5.67;5.67;;;;;14.33;65.67;101415.59;5062941;28;45633;-58
2022/10/08 06:29:32;;;;;;;;;4.33;4.33;;;;;14.28;65.08;101420.19;5051740;28;45451;-60
2022/10/08 06:32:01;;;;;;;;;5.67;4.67;;;;;14.32;65.99;101433.25;5059537;28;46308;-57
2022/10/08 06:34:26;;;;;;;;;6.00;6.00;;;;;14.32;65.99;101441.19;5059880;28;49150;-57
2022/10/08 06:36:51;;;;;;;;;4.33;4.33;;;;;14.31;66.30;101438.59;5066454;28;46952;-56
2022/10/08 06:39:17;;;;;;;;;6.00;4.67;;;;;14.30;65.56;101437.75;5043436;28;45498;-55
2022/10/08 06:41:44;;;;;;;;;6.00;5.67;;;;;14.33;65.50;101448.19;5056776;28;47403;-54
2022/10/08 06:44:12;;;;;;;;;4.00;4.00;;;;;14.30;65.70;101445.69;5057268;28;45374;-56
2022/10/08 06:46:38;;;;;;;;;5.00;5.00;;;;;14.37;65.49;101454.22;5039492;28;45497;-56
2022/10/08 06:49:07;;;;;;;;;5.33;5.00;;;;;14.38;64.71;101455.97;5039622;28;45533;-54
2022/10/08 06:51:33;;;;;;;;;7.00;4.00;;;;;14.44;64.98;101460.19;5072386;28;45406;-56
2022/10/08 06:53:58;;;;;;;;;4.33;3.67;;;;;14.41;65.69;101461.16;5078202;28;45619;-54
2022/10/08 06:56:24;;;;;;;;;6.33;5.67;;;;;14.43;65.81;101463.75;5071276;28;45422;-57
2022/10/08 06:58:50;;;;;;;;;6.33;5.00;;;;;14.40;65.90;101464.72;5058020;28;45432;-56
2022/10/08 07:01:21;;;;;;;;;8.33;6.00;;;;;14.42;65.70;101459.38;5040783;28;45423;-60
2022/10/08 07:03:52;;;;;;;;;5.00;5.00;;;;;14.42;65.42;101460.22;5040777;28;45375;-61
2022/10/08 07:06:18;;;;;;;;;7.00;7.00;;;;;14.41;65.82;101465.59;5057489;28;45404;-61
2022/10/08 07:08:44;;;;;;;;;5.67;5.33;;;;;14.42;65.58;101480.53;5072804;28;45517;-61
2022/10/08 07:11:12;;;;;;;;;5.33;5.00;;;;;14.45;65.22;101478.63;5065754;28;46287;-60
2022/10/08 07:13:39;;;;;;;;;4.00;2.33;;;;;14.50;66.06;101486.41;5057602;28;45502;-58
2022/10/08 07:16:25;;;;;;;;;6.33;6.33;;;;;14.46;65.93;101490.09;5048737;28;45374;-60
2022/10/08 07:18:51;;;;;;;;;6.00;4.33;;;;;14.53;65.33;101489.84;5055545;28;45447;-60
2022/10/08 07:21:19;;;;;;;;;3.67;3.00;;;;;14.53;64.83;101497.78;5044598;28;47802;-60
2022/10/08 07:23:44;;;;;;;;;6.33;5.33;;;;;14.52;65.25;101506.63;5055666;28;45512;-59
2022/10/08 07:26:11;;;;;;;;;6.00;6.00;;;;;14.52;65.55;101511.03;5050096;28;46726;-56
2022/10/08 07:28:40;;;;;;;;;6.00;5.00;;;;;14.49;65.78;101505.88;5045727;28;45433;-58
2022/10/08 07:31:08;;;;;;;;;5.33;5.33;;;;;14.46;66.14;101511.28;5066612;28;46176;-57
2022/10/08 07:33:33;;;;;;;;;6.33;6.33;;;;;14.50;65.82;101516.38;5051204;28;45435;-58
2022/10/08 07:36:10;;;;;;;;;5.33;4.33;;;;;14.55;65.71;101511.81;5032107;28;45428;-59
2022/10/08 07:38:37;;;;;;;;;6.00;4.33;;;;;14.63;65.34;101516.81;5056171;28;45454;-61
2022/10/08 07:41:02;;;;;;;;;6.00;6.00;;;;;14.67;65.83;101517.56;5056812;28;46217;-62
2022/10/08 07:43:28;;;;;;;;;5.67;4.00;;;;;14.62;65.90;101525.69;5056035;28;45486;-59
2022/10/08 07:45:53;;;;;;;;;4.67;4.67;;;;;14.63;65.48;101526.56;5054927;28;45395;-62
2022/10/08 07:48:18;;;;;;;;;6.33;5.33;;;;;14.68;66.02;101532.56;5050938;28;45562;-58
2022/10/08 07:50:44;;;;;;;;;6.67;5.00;;;;;14.71;65.41;101529.78;5050106;28;45934;-59
2022/10/08 07:53:10;;;;;;;;;3.00;3.00;;;;;14.76;64.67;101539.28;5050159;28;45467;-59
2022/10/08 07:55:35;;;;;;;;;5.00;5.00;;;;;14.79;65.94;101533.00;5050618;28;45412;-56
2022/10/08 07:58:00;;;;;;;;;6.33;5.67;;;;;14.82;64.84;101543.47;5034806;28;45391;-57
2022/10/08 08:00:26;;;;;;;;;7.67;6.00;;;;;14.85;65.22;101542.50;5036374;28;46076;-58
2022/10/08 08:02:52;;;;;;;;;4.00;4.00;;;;;14.93;64.67;101549.22;5036724;28;45455;-57
2022/10/08 08:05:17;;;;;;;;;5.00;5.00;;;;;14.95;65.21;101543.88;5018983;28;45532;-57
2022/10/08 08:07:42;;;;;;;;;3.33;3.33;;;;;14.94;65.38;101550.09;5072220;28;56404;-57
2022/10/08 08:10:07;;;;;;;;;5.67;4.67;;;;;14.95;65.52;101562.41;5061137;28;46113;-57
2022/10/08 08:12:33;;;;;;;;;7.67;6.67;;;;;14.99;65.60;101553.41;5056424;28;45590;-57
2022/10/08 08:14:58;;;;;;;;;11.00;7.67;;;;;14.98;65.81;101555.22;5037895;28;45550;-57
2022/10/08 08:17:23;;;;;;;;;6.00;6.00;;;;;15.01;64.89;101564.81;5064885;28;45587;-57
2022/10/08 08:19:49;;;;;;;;;6.00;6.00;;;;;15.08;65.83;101563.69;5075644;28;46108;-57
2022/10/08 08:22:14;;;;;;;;;5.00;5.00;;;;;15.11;65.07;101568.84;5045554;28;45494;-59
2022/10/08 08:24:39;;;;;;;;;6.67;5.00;;;;;15.13;64.53;101576.75;5036592;28;45391;-58
2022/10/08 08:27:05;;;;;;;;;4.67;4.67;;;;;15.17;64.70;101576.56;5046659;28;45415;-58
2022/10/08 08:29:30;;;;;;;;;5.33;4.67;;;;;15.24;64.11;101579.84;5056512;28;45492;-58
2022/10/08 08:31:56;;;;;;;;;7.33;6.00;;;;;15.31;65.01;101583.09;5055527;28;45367;-57
2022/10/08 08:34:23;;;;;;;;;3.00;3.00;;;;;15.28;63.94;101586.75;5056765;28;45391;-57
2022/10/08 08:36:52;;;;;;;;;5.00;5.00;;;;;15.34;64.87;101581.22;5043133;28;45617;-58
2022/10/08 08:39:23;;;;;;;;;6.00;5.67;;;;;15.38;64.22;101588.09;5035176;28;46187;-58
2022/10/08 08:42:01;;;;;;;;;2.00;1.00;;;;;15.39;63.61;101592.50;5035830;28;45506;-58
2022/10/08 08:44:33;;;;;;;;;5.00;3.00;;;;;15.42;63.41;101591.50;5036195;28;45444;-58
2022/10/08 08:47:08;;;;;;;;;3.00;3.00;;;;;15.42;63.66;101604.75;5028575;28;45459;-60
2022/10/08 08:49:48;;;;;;;;;4.00;2.33;;;;;15.41;63.01;101605.69;5029160;28;46142;-59
2022/10/08 08:52:16;;;;;;;;;5.00;4.33;;;;;15.51;63.13;101600.88;5034303;28;45510;-60
2022/10/08 08:54:46;;;;;;;;;5.33;3.00;;;;;15.58;63.10;101607.66;5036382;28;45428;-60
2022/10/08 08:57:18;;;;;;;;;6.33;5.33;;;;;15.65;62.35;101614.44;5043399;28;45476;-60
2022/10/08 08:59:46;;;;;;;;;6.00;4.67;;;;;15.67;62.48;101620.56;5020421;28;45413;-60
2022/10/08 09:02:37;;;;;;;;;5.00;4.00;;;;;15.72;61.93;101620.41;5038738;28;45455;-60
2022/10/08 09:05:10;;;;;;;;;3.33;2.00;;;;;15.73;62.49;101609.72;5035682;28;45528;-61
2022/10/08 09:07:41;;;;;;;;;7.00;5.33;;;;;15.79;62.12;101614.78;5050293;28;45553;-61
2022/10/08 09:10:15;;;;;;;;;4.67;2.67;;;;;15.77;62.51;101619.31;5045476;28;45518;-58
2022/10/08 09:12:42;;;;;;;;;5.00;4.00;;;;;15.82;61.95;101617.31;5036777;28;45379;-58
2022/10/08 09:15:20;;;;;;;;;5.00;4.67;;;;;15.87;61.65;101628.59;5055905;28;45392;-57
2022/10/08 09:17:50;;;;;;;;;4.67;3.00;;;;;15.90;60.84;101624.94;5037256;28;45713;-59
2022/10/08 09:20:17;;;;;;;;;5.00;3.00;;;;;15.95;59.96;101633.59;5055236;28;47073;-59
2022/10/08 09:22:44;;;;;;;;;5.00;5.00;;;;;15.97;60.20;101622.91;5055582;28;45484;-59
2022/10/08 09:25:17;;;;;;;;;4.67;4.00;;;;;16.03;59.33;101628.81;5045929;28;45489;-61
2022/10/08 09:27:50;;;;;;;;;4.00;4.00;;;;;16.03;59.64;101631.47;5033575;28;45513;-62
2022/10/08 09:30:41;;;;;;;;;5.33;5.33;;;;;16.09;59.44;101631.25;5035037;28;45455;-62
2022/10/08 09:33:06;;;;;;;;;4.00;4.00;;;;;16.16;58.56;101633.63;5035708;28;45491;-61
2022/10/08 09:35:38;;;;;;;;;6.00;4.67;;;;;16.17;58.39;101643.31;5032488;28;45529;-59
2022/10/08 09:38:04;;;;;;;;;5.67;4.67;;;;;16.20;58.66;101641.41;5031919;28;45396;-60
2022/10/08 09:40:29;;;;;;;;;2.00;2.00;;;;;16.17;57.31;101643.31;5036521;28;51300;-59
2022/10/08 09:43:11;;;;;;;;;5.33;3.00;;;;;16.25;58.06;101644.69;5015638;28;45454;-58
2022/10/08 09:45:44;;;;;;;;;3.33;3.00;;;;;16.29;56.71;101645.47;5036551;28;45548;-59
2022/10/08 09:48:24;;;;;;;;;3.00;3.00;;;;;16.35;57.43;101643.38;5037281;28;45443;-59
2022/10/08 09:50:57;;;;;;;;;3.67;3.33;;;;;16.44;56.41;101642.16;5037360;28;45813;-59
2022/10/08 09:53:30;;;;;;;;;3.00;3.00;;;;;16.51;55.54;101654.22;5036233;28;45455;-59
2022/10/08 09:56:04;;;;;;;;;4.00;3.00;;;;;16.61;56.01;101643.22;5037096;28;45384;-58
2022/10/08 09:58:32;;;;;;;;;5.00;3.67;;;;;16.66;55.80;101639.41;5037526;28;45444;-59
2022/10/08 10:01:20;;;;;;;;;2.67;1.67;;;;;16.68;54.83;101650.81;5037743;28;45468;-57
2022/10/08 10:03:59;;;;;;;;;6.00;5.00;;;;;16.73;55.33;101651.47;5038240;28;45502;-57
2022/10/08 10:06:34;;;;;;;;;4.67;4.67;;;;;16.77;55.79;101653.13;5031905;28;45417;-58
2022/10/08 10:09:02;;;;;;;;;6.00;4.00;;;;;16.83;54.11;101646.66;5018637;28;45430;-59
2022/10/08 10:11:40;;;;;;;;;5.67;4.00;;;;;16.82;54.12;101650.25;5038246;28;45905;-58
2022/10/08 10:14:22;;;;;;;;;3.33;3.33;;;;;16.89;54.28;101653.50;5038479;28;45414;-58
2022/10/08 10:16:55;;;;;;;;;2.00;2.00;;;;;16.90;53.30;101655.22;5018367;28;45511;-59
2022/10/08 10:19:27;;;;;;;;;3.00;3.00;;;;;16.83;54.25;101645.81;4993310;28;45402;-58
2022/10/08 10:22:01;;;;;;;;;2.67;2.67;;;;;16.89;53.84;101643.72;5025939;28;46179;-58
2022/10/08 10:24:44;;;;;;;;;4.33;4.00;;;;;16.95;53.47;101654.09;5037964;28;45380;-58
2022/10/08 10:27:18;;;;;;;;;3.00;3.00;;;;;16.99;54.05;101652.16;5058338;28;45437;-57
2022/10/08 10:30:13;;;;;;;;;3.00;2.67;;;;;17.02;53.06;101657.31;5058565;28;45396;-58
2022/10/08 10:33:28;;;;;;;;;2.00;2.00;;;;;17.00;52.41;101654.72;5058900;28;46089;-58
2022/10/08 10:35:59;;;;;;;;;3.00;2.00;;;;;16.97;52.29;101648.69;4952786;28;45534;-58
2022/10/08 10:38:28;;;;;;;;;3.00;3.00;;;;;16.97;52.05;101654.88;4951425;28;45366;-58
2022/10/08 10:41:18;;;;;;;;;2.67;2.67;;;;;16.96;52.38;101652.28;4989050;28;45709;-58
2022/10/08 10:43:43;;;;;;;;;3.00;3.00;;;;;16.96;52.19;101655.81;5048778;28;47454;-58
2022/10/08 10:46:17;;;;;;;;;4.00;4.00;;;;;16.89;52.58;101657.00;5040231;28;45479;-58
2022/10/08 10:48:43;;;;;;;;;3.33;3.33;;;;;16.92;51.95;101658.66;5043097;28;45392;-61
2022/10/08 10:51:20;;;;;;;;;3.33;2.00;;;;;16.95;52.88;101655.88;5036635;28;45347;-61
2022/10/08 10:53:51;;;;;;;;;1.00;1.00;;;;;16.92;51.91;101664.84;5038143;28;46244;-61
2022/10/08 10:56:18;;;;;;;;;1.00;1.00;;;;;16.93;52.75;101661.28;5049733;28;45439;-60
2022/10/08 10:59:16;;;;;;;;;3.33;3.33;;;;;16.96;52.37;101660.28;5040266;28;45552;-59
2022/10/08 11:01:57;;;;;;;;;3.00;3.00;;;;;16.99;52.51;101662.78;5037466;28;45416;-60
2022/10/08 11:04:28;;;;;;;;;3.00;3.00;;;;;17.03;52.21;101658.19;5037388;28;45664;-60
2022/10/08 11:07:02;;;;;;;;;2.67;2.67;;;;;16.99;51.28;101652.16;5046013;28;45472;-59
2022/10/08 11:09:37;;;;;;;;;4.00;3.00;;;;;17.05;50.51;101657.19;5028223;28;45430;-58
2022/10/08 11:12:08;;;;;;;;;4.00;3.00;;;;;17.10;52.16;101657.84;5056040;28;45539;-58
2022/10/08 11:14:49;;;;;;;;;4.00;2.33;;;;;17.19;51.50;101660.09;5017987;28;46263;-58
2022/10/08 11:17:29;;;;;;;;;4.00;3.00;;;;;17.26;51.32;101654.47;5037088;28;45420;-59
2022/10/08 11:20:27;;;;;;;;;4.00;2.00;;;;;17.24;49.84;101659.84;5037314;28;45547;-59
2022/10/08 11:23:11;;;;;;;;;2.00;2.00;;;;;17.21;50.43;101655.53;5057381;28;45431;-58
2022/10/08 11:25:46;;;;;;;;;2.00;2.00;;;;;17.18;49.63;101660.16;5045401;28;46388;-58
2022/10/08 11:28:24;;;;;;;;;2.33;2.33;;;;;17.21;49.96;101667.97;5039283;28;45424;-58
2022/10/08 11:31:20;;;;;;;;;3.00;3.00;;;;;17.24;49.88;101657.19;5036766;28;45500;-58
2022/10/08 11:33:47;;;;;;;;;2.00;1.33;;;;;17.32;49.29;101655.03;5018455;28;45420;-58
2022/10/08 11:36:20;;;;;;;;;2.00;2.00;;;;;17.30;49.27;101643.63;5009647;28;45351;-58
2022/10/08 11:38:48;;;;;;;;;4.00;2.33;;;;;17.34;49.64;101653.19;5035421;28;45533;-58
2022/10/08 11:42:07;;;;;;;;;2.00;2.00;;;;;17.37;50.02;101650.38;5028747;28;45378;-59
2022/10/08 11:44:36;;;;;;;;;1.00;1.00;;;;;17.38;49.43;101649.47;4936169;28;45529;-58
2022/10/08 11:47:46;;;;;;;;;4.33;3.33;;;;;17.35;49.40;101646.91;5029400;28;45395;-58